sensor_id;sensor_type;location;lat;lon;timestamp;P1;durP1;ratioP1;P2;durP2;ratioP2
73670;SDS011;61968;48.178;11.566;2022-07-04T00:01:14;2.58;;;2.38;;
73670;SDS011;61968;48.178;11.566;2022-07-04T00:03:40;2.05;;;1.92;;
73670;SDS011;61968;48.178;11.566;2022-07-04T00:06:07;4.43;;;1.85;;
73670;SDS011;61968;48.178;11.566;2022-07-04T00:08:33;2.35;;;1.90;;
73670;SDS011;61968;48.178;11.566;2022-07-04T00:11:00;1.85;;;1.73;;
73670;SDS011;61968;48.178;11.566;2022-07-04T00:13:28;2.15;;;1.55;;
73670;SDS011;61968;48.178;11.566;2022-07-04T00:15:55;1.65;;;1.55;;
73670;SDS011;61968;48.178;11.566;2022-07-04T00:18:21;4.45;;;1.67;;
73670;SDS011;61968;48.178;11.566;2022-07-04T00:20:48;1.35;;;1.25;;
73670;SDS011;61968;48.178;11.566;2022-07-04T00:23:14;1.90;;;1.80;;
73670;SDS011;61968;48.178;11.566;2022-07-04T00:25:41;2.30;;;1.70;;
73670;SDS011;61968;48.178;11.566;2022-07-04T00:28:07;2.33;;;1.85;;
73670;SDS011;61968;48.178;11.566;2022-07-04T00:30:35;1.45;;;1.35;;
73670;SDS011;61968;48.178;11.566;2022-07-04T00:33:02;2.65;;;1.73;;
73670;SDS011;61968;48.178;11.566;2022-07-04T00:35:28;1.88;;;1.55;;
73670;SDS011;61968;48.178;11.566;2022-07-04T00:37:55;1.67;;;1.58;;
73670;SDS011;61968;48.178;11.566;2022-07-04T00:40:21;3.20;;;1.63;;
73670;SDS011;61968;48.178;11.566;2022-07-04T00:42:48;2.13;;;1.83;;
73670;SDS011;61968;48.178;11.566;2022-07-04T00:45:14;3.35;;;2.25;;
73670;SDS011;61968;48.178;11.566;2022-07-04T00:47:42;1.75;;;1.65;;
73670;SDS011;61968;48.178;11.566;2022-07-04T00:50:09;3.03;;;1.80;;
73670;SDS011;61968;48.178;11.566;2022-07-04T00:52:35;3.60;;;2.30;;
73670;SDS011;61968;48.178;11.566;2022-07-04T00:55:02;2.67;;;2.00;;
73670;SDS011;61968;48.178;11.566;2022-07-04T00:57:30;2.53;;;1.70;;
73670;SDS011;61968;48.178;11.566;2022-07-04T00:59:56;3.08;;;2.22;;
73670;SDS011;61968;48.178;11.566;2022-07-04T01:02:23;2.00;;;1.55;;
73670;SDS011;61968;48.178;11.566;2022-07-04T01:04:51;2.55;;;1.60;;
73670;SDS011;61968;48.178;11.566;2022-07-04T01:07:17;1.60;;;1.50;;
73670;SDS011;61968;48.178;11.566;2022-07-04T01:09:44;5.03;;;1.52;;
73670;SDS011;61968;48.178;11.566;2022-07-04T01:12:23;1.40;;;1.30;;
73670;SDS011;61968;48.178;11.566;2022-07-04T01:14:50;1.45;;;1.35;;
73670;SDS011;61968;48.178;11.566;2022-07-04T01:17:17;1.65;;;1.55;;
73670;SDS011;61968;48.178;11.566;2022-07-04T01:19:43;1.50;;;1.40;;
73670;SDS011;61968;48.178;11.566;2022-07-04T01:22:11;2.10;;;1.23;;
73670;SDS011;61968;48.178;11.566;2022-07-04T01:24:38;3.05;;;1.42;;
73670;SDS011;61968;48.178;11.566;2022-07-04T01:27:05;1.02;;;0.90;;
73670;SDS011;61968;48.178;11.566;2022-07-04T01:29:31;1.70;;;1.30;;
73670;SDS011;61968;48.178;11.566;2022-07-04T01:32:02;2.90;;;1.30;;
73670;SDS011;61968;48.178;11.566;2022-07-04T01:34:29;2.92;;;1.50;;
73670;SDS011;61968;48.178;11.566;2022-07-04T01:36:56;1.40;;;1.30;;
73670;SDS011;61968;48.178;11.566;2022-07-04T01:39:25;1.20;;;1.05;;
73670;SDS011;61968;48.178;11.566;2022-07-04T01:41:52;1.35;;;0.95;;
73670;SDS011;61968;48.178;11.566;2022-07-04T01:44:18;1.65;;;1.30;;
73670;SDS011;61968;48.178;11.566;2022-07-04T01:46:45;1.10;;;1.00;;
73670;SDS011;61968;48.178;11.566;2022-07-04T01:49:11;1.38;;;1.27;;
73670;SDS011;61968;48.178;11.566;2022-07-04T01:51:43;3.10;;;1.48;;
73670;SDS011;61968;48.178;11.566;2022-07-04T01:54:10;1.13;;;1.05;;
73670;SDS011;61968;48.178;11.566;2022-07-04T01:56:38;1.70;;;1.40;;
73670;SDS011;61968;48.178;11.566;2022-07-04T01:59:05;1.40;;;1.23;;
73670;SDS011;61968;48.178;11.566;2022-07-04T02:01:32;1.10;;;1.10;;
73670;SDS011;61968;48.178;11.566;2022-07-04T02:03:58;2.92;;;1.20;;
73670;SDS011;61968;48.178;11.566;2022-07-04T02:06:25;1.42;;;1.20;;
73670;SDS011;61968;48.178;11.566;2022-07-04T02:08:51;2.20;;;1.50;;
73670;SDS011;61968;48.178;11.566;2022-07-04T02:11:35;1.30;;;1.20;;
73670;SDS011;61968;48.178;11.566;2022-07-04T02:14:17;2.05;;;1.30;;
73670;SDS011;61968;48.178;11.566;2022-07-04T02:16:44;1.27;;;1.17;;
73670;SDS011;61968;48.178;11.566;2022-07-04T02:19:10;2.45;;;1.38;;
73670;SDS011;61968;48.178;11.566;2022-07-04T02:21:37;1.98;;;1.20;;
73670;SDS011;61968;48.178;11.566;2022-07-04T02:24:04;1.70;;;1.25;;
73670;SDS011;61968;48.178;11.566;2022-07-04T02:26:31;1.23;;;1.13;;
73670;SDS011;61968;48.178;11.566;2022-07-04T02:28:57;1.40;;;1.30;;
73670;SDS011;61968;48.178;11.566;2022-07-04T02:31:25;3.63;;;1.60;;
73670;SDS011;61968;48.178;11.566;2022-07-04T02:33:52;2.10;;;1.80;;
73670;SDS011;61968;48.178;11.566;2022-07-04T02:36:18;2.72;;;2.45;;
73670;SDS011;61968;48.178;11.566;2022-07-04T02:38:45;2.70;;;2.30;;
73670;SDS011;61968;48.178;11.566;2022-07-04T02:41:11;3.78;;;2.80;;
73670;SDS011;61968;48.178;11.566;2022-07-04T02:43:38;6.30;;;2.22;;
73670;SDS011;61968;48.178;11.566;2022-07-04T02:46:04;2.20;;;2.10;;
73670;SDS011;61968;48.178;11.566;2022-07-04T02:48:32;2.50;;;2.30;;
73670;SDS011;61968;48.178;11.566;2022-07-04T02:50:59;2.92;;;2.05;;
73670;SDS011;61968;48.178;11.566;2022-07-04T02:53:25;3.55;;;2.38;;
73670;SDS011;61968;48.178;11.566;2022-07-04T02:55:52;2.22;;;1.90;;
73670;SDS011;61968;48.178;11.566;2022-07-04T02:58:19;4.75;;;2.15;;
73670;SDS011;61968;48.178;11.566;2022-07-04T03:00:45;2.88;;;2.08;;
73670;SDS011;61968;48.178;11.566;2022-07-04T03:03:12;2.53;;;2.30;;
73670;SDS011;61968;48.178;11.566;2022-07-04T03:05:39;1.75;;;1.65;;
73670;SDS011;61968;48.178;11.566;2022-07-04T03:08:06;2.97;;;1.58;;
73670;SDS011;61968;48.178;11.566;2022-07-04T03:10:32;2.45;;;1.90;;
73670;SDS011;61968;48.178;11.566;2022-07-04T03:12:59;3.25;;;1.95;;
73670;SDS011;61968;48.178;11.566;2022-07-04T03:15:25;1.90;;;1.70;;
73670;SDS011;61968;48.178;11.566;2022-07-04T03:17:52;1.92;;;1.77;;
73670;SDS011;61968;48.178;11.566;2022-07-04T03:20:18;2.33;;;1.95;;
73670;SDS011;61968;48.178;11.566;2022-07-04T03:22:46;3.47;;;1.90;;
73670;SDS011;61968;48.178;11.566;2022-07-04T03:25:12;2.88;;;1.83;;
73670;SDS011;61968;48.178;11.566;2022-07-04T03:27:39;2.53;;;2.10;;
73670;SDS011;61968;48.178;11.566;2022-07-04T03:30:06;2.95;;;1.77;;
73670;SDS011;61968;48.178;11.566;2022-07-04T03:32:32;2.15;;;2.03;;
73670;SDS011;61968;48.178;11.566;2022-07-04T03:34:59;2.35;;;1.95;;
73670;SDS011;61968;48.178;11.566;2022-07-04T03:37:26;2.30;;;2.13;;
73670;SDS011;61968;48.178;11.566;2022-07-04T03:39:53;2.95;;;2.25;;
73670;SDS011;61968;48.178;11.566;2022-07-04T03:42:20;6.55;;;3.20;;
73670;SDS011;61968;48.178;11.566;2022-07-04T03:44:46;2.90;;;1.90;;
73670;SDS011;61968;48.178;11.566;2022-07-04T03:47:13;2.05;;;1.77;;
73670;SDS011;61968;48.178;11.566;2022-07-04T03:49:40;2.60;;;2.15;;
73670;SDS011;61968;48.178;11.566;2022-07-04T03:52:06;3.83;;;1.70;;
73670;SDS011;61968;48.178;11.566;2022-07-04T03:54:33;2.17;;;1.58;;
73670;SDS011;61968;48.178;11.566;2022-07-04T03:57:01;2.22;;;2.03;;
73670;SDS011;61968;48.178;11.566;2022-07-04T03:59:27;2.97;;;2.20;;
73670;SDS011;61968;48.178;11.566;2022-07-04T04:01:54;2.05;;;1.77;;
73670;SDS011;61968;48.178;11.566;2022-07-04T04:04:20;6.20;;;2.15;;
73670;SDS011;61968;48.178;11.566;2022-07-04T04:07:04;2.90;;;2.13;;
73670;SDS011;61968;48.178;11.566;2022-07-04T04:09:31;1.98;;;1.85;;
73670;SDS011;61968;48.178;11.566;2022-07-04T04:12:01;2.47;;;2.28;;
73670;SDS011;61968;48.178;11.566;2022-07-04T04:14:27;3.25;;;2.17;;
73670;SDS011;61968;48.178;11.566;2022-07-04T04:16:54;2.28;;;2.08;;
73670;SDS011;61968;48.178;11.566;2022-07-04T04:19:20;3.50;;;2.05;;
73670;SDS011;61968;48.178;11.566;2022-07-04T04:21:47;3.28;;;1.98;;
73670;SDS011;61968;48.178;11.566;2022-07-04T04:24:13;1.40;;;1.30;;
73670;SDS011;61968;48.178;11.566;2022-07-04T04:26:40;1.67;;;1.58;;
73670;SDS011;61968;48.178;11.566;2022-07-04T04:29:08;2.78;;;1.58;;
73670;SDS011;61968;48.178;11.566;2022-07-04T04:31:34;1.77;;;1.45;;
73670;SDS011;61968;48.178;11.566;2022-07-04T04:34:01;3.00;;;1.67;;
73670;SDS011;61968;48.178;11.566;2022-07-04T04:36:27;4.47;;;3.10;;
73670;SDS011;61968;48.178;11.566;2022-07-04T04:38:54;3.85;;;2.58;;
73670;SDS011;61968;48.178;11.566;2022-07-04T04:41:20;3.05;;;1.98;;
73670;SDS011;61968;48.178;11.566;2022-07-04T04:43:47;2.38;;;1.98;;
73670;SDS011;61968;48.178;11.566;2022-07-04T04:46:14;2.10;;;1.90;;
73670;SDS011;61968;48.178;11.566;2022-07-04T04:48:41;2.17;;;1.70;;
73670;SDS011;61968;48.178;11.566;2022-07-04T04:51:07;2.17;;;1.65;;
73670;SDS011;61968;48.178;11.566;2022-07-04T04:53:34;2.80;;;1.75;;
73670;SDS011;61968;48.178;11.566;2022-07-04T04:56:01;2.70;;;2.45;;
73670;SDS011;61968;48.178;11.566;2022-07-04T04:58:28;2.40;;;2.13;;
73670;SDS011;61968;48.178;11.566;2022-07-04T05:00:55;2.03;;;1.90;;
73670;SDS011;61968;48.178;11.566;2022-07-04T05:03:22;1.85;;;1.55;;
73670;SDS011;61968;48.178;11.566;2022-07-04T05:05:49;3.15;;;1.52;;
73670;SDS011;61968;48.178;11.566;2022-07-04T05:08:16;2.67;;;2.17;;
73670;SDS011;61968;48.178;11.566;2022-07-04T05:10:42;2.10;;;1.92;;
73670;SDS011;61968;48.178;11.566;2022-07-04T05:13:09;2.33;;;2.13;;
73670;SDS011;61968;48.178;11.566;2022-07-04T05:15:36;2.92;;;2.13;;
73670;SDS011;61968;48.178;11.566;2022-07-04T05:18:07;2.63;;;1.80;;
73670;SDS011;61968;48.178;11.566;2022-07-04T05:20:35;2.05;;;1.85;;
73670;SDS011;61968;48.178;11.566;2022-07-04T05:23:02;1.98;;;1.63;;
73670;SDS011;61968;48.178;11.566;2022-07-04T05:25:28;1.83;;;1.67;;
73670;SDS011;61968;48.178;11.566;2022-07-04T05:27:55;4.20;;;1.83;;
73670;SDS011;61968;48.178;11.566;2022-07-04T05:30:21;3.00;;;1.80;;
73670;SDS011;61968;48.178;11.566;2022-07-04T05:32:48;2.17;;;1.98;;
73670;SDS011;61968;48.178;11.566;2022-07-04T05:35:14;6.38;;;2.00;;
73670;SDS011;61968;48.178;11.566;2022-07-04T05:37:42;3.28;;;1.75;;
73670;SDS011;61968;48.178;11.566;2022-07-04T05:40:09;2.13;;;1.80;;
73670;SDS011;61968;48.178;11.566;2022-07-04T05:42:37;3.10;;;1.75;;
73670;SDS011;61968;48.178;11.566;2022-07-04T05:45:03;3.28;;;1.98;;
73670;SDS011;61968;48.178;11.566;2022-07-04T05:47:34;2.42;;;1.60;;
73670;SDS011;61968;48.178;11.566;2022-07-04T05:50:00;3.20;;;1.80;;
73670;SDS011;61968;48.178;11.566;2022-07-04T05:52:27;1.60;;;1.50;;
73670;SDS011;61968;48.178;11.566;2022-07-04T05:54:55;1.77;;;1.65;;
73670;SDS011;61968;48.178;11.566;2022-07-04T05:57:21;1.80;;;1.70;;
73670;SDS011;61968;48.178;11.566;2022-07-04T05:59:48;3.78;;;1.98;;
73670;SDS011;61968;48.178;11.566;2022-07-04T06:02:14;3.05;;;1.80;;
73670;SDS011;61968;48.178;11.566;2022-07-04T06:04:41;3.15;;;1.75;;
73670;SDS011;61968;48.178;11.566;2022-07-04T06:07:08;2.20;;;1.73;;
73670;SDS011;61968;48.178;11.566;2022-07-04T06:09:34;3.58;;;1.70;;
73670;SDS011;61968;48.178;11.566;2022-07-04T06:12:03;1.63;;;1.50;;
73670;SDS011;61968;48.178;11.566;2022-07-04T06:14:30;1.65;;;1.40;;
73670;SDS011;61968;48.178;11.566;2022-07-04T06:17:00;3.28;;;1.80;;
73670;SDS011;61968;48.178;11.566;2022-07-04T06:19:26;2.78;;;2.00;;
73670;SDS011;61968;48.178;11.566;2022-07-04T06:21:53;4.18;;;1.20;;
73670;SDS011;61968;48.178;11.566;2022-07-04T06:24:19;1.50;;;1.40;;
73670;SDS011;61968;48.178;11.566;2022-07-04T06:26:46;1.58;;;1.48;;
73670;SDS011;61968;48.178;11.566;2022-07-04T06:29:14;1.95;;;1.63;;
73670;SDS011;61968;48.178;11.566;2022-07-04T06:31:40;2.45;;;1.50;;
73670;SDS011;61968;48.178;11.566;2022-07-04T06:34:07;3.92;;;1.50;;
73670;SDS011;61968;48.178;11.566;2022-07-04T06:36:51;2.45;;;1.23;;
73670;SDS011;61968;48.178;11.566;2022-07-04T06:39:18;1.98;;;1.52;;
73670;SDS011;61968;48.178;11.566;2022-07-04T06:41:44;1.52;;;1.35;;
73670;SDS011;61968;48.178;11.566;2022-07-04T06:44:10;1.40;;;1.30;;
73670;SDS011;61968;48.178;11.566;2022-07-04T06:46:38;2.88;;;1.40;;
73670;SDS011;61968;48.178;11.566;2022-07-04T06:49:05;3.00;;;1.67;;
73670;SDS011;61968;48.178;11.566;2022-07-04T06:51:31;1.50;;;1.40;;
73670;SDS011;61968;48.178;11.566;2022-07-04T06:53:58;1.48;;;1.30;;
73670;SDS011;61968;48.178;11.566;2022-07-04T06:56:24;1.60;;;1.50;;
73670;SDS011;61968;48.178;11.566;2022-07-04T06:58:50;1.67;;;1.55;;
73670;SDS011;61968;48.178;11.566;2022-07-04T07:01:17;1.58;;;1.40;;
73670;SDS011;61968;48.178;11.566;2022-07-04T07:03:45;1.90;;;1.40;;
73670;SDS011;61968;48.178;11.566;2022-07-04T07:06:11;1.60;;;1.35;;
73670;SDS011;61968;48.178;11.566;2022-07-04T07:08:38;3.88;;;1.33;;
73670;SDS011;61968;48.178;11.566;2022-07-04T07:11:04;3.58;;;1.45;;
73670;SDS011;61968;48.178;11.566;2022-07-04T07:13:41;2.75;;;1.10;;
73670;SDS011;61968;48.178;11.566;2022-07-04T07:16:09;2.13;;;1.45;;
73670;SDS011;61968;48.178;11.566;2022-07-04T07:18:36;1.30;;;1.20;;
73670;SDS011;61968;48.178;11.566;2022-07-04T07:21:04;2.80;;;1.58;;
73670;SDS011;61968;48.178;11.566;2022-07-04T07:23:31;1.30;;;1.20;;
73670;SDS011;61968;48.178;11.566;2022-07-04T07:25:58;1.00;;;1.00;;
73670;SDS011;61968;48.178;11.566;2022-07-04T07:28:24;2.05;;;1.35;;
73670;SDS011;61968;48.178;11.566;2022-07-04T07:30:51;2.05;;;1.58;;
73670;SDS011;61968;48.178;11.566;2022-07-04T07:33:17;3.60;;;1.65;;
73670;SDS011;61968;48.178;11.566;2022-07-04T07:35:44;2.10;;;1.30;;
73670;SDS011;61968;48.178;11.566;2022-07-04T07:38:12;2.45;;;1.73;;
73670;SDS011;61968;48.178;11.566;2022-07-04T07:40:38;1.50;;;1.40;;
73670;SDS011;61968;48.178;11.566;2022-07-04T07:43:05;2.88;;;1.38;;
73670;SDS011;61968;48.178;11.566;2022-07-04T07:45:32;1.80;;;1.70;;
73670;SDS011;61968;48.178;11.566;2022-07-04T07:47:59;1.63;;;1.38;;
73670;SDS011;61968;48.178;11.566;2022-07-04T07:50:25;4.30;;;1.55;;
73670;SDS011;61968;48.178;11.566;2022-07-04T07:52:52;2.03;;;1.50;;
73670;SDS011;61968;48.178;11.566;2022-07-04T07:55:20;2.28;;;1.40;;
73670;SDS011;61968;48.178;11.566;2022-07-04T07:57:46;1.05;;;0.93;;
73670;SDS011;61968;48.178;11.566;2022-07-04T08:00:14;1.42;;;1.27;;
73670;SDS011;61968;48.178;11.566;2022-07-04T08:02:41;4.25;;;1.25;;
73670;SDS011;61968;48.178;11.566;2022-07-04T08:05:25;2.90;;;1.50;;
73670;SDS011;61968;48.178;11.566;2022-07-04T08:07:51;1.27;;;1.17;;
73670;SDS011;61968;48.178;11.566;2022-07-04T08:10:19;2.88;;;1.63;;
73670;SDS011;61968;48.178;11.566;2022-07-04T08:12:46;1.23;;;1.13;;
73670;SDS011;61968;48.178;11.566;2022-07-04T08:15:13;1.15;;;1.05;;
73670;SDS011;61968;48.178;11.566;2022-07-04T08:17:39;1.58;;;1.17;;
73670;SDS011;61968;48.178;11.566;2022-07-04T08:20:06;1.35;;;1.25;;
73670;SDS011;61968;48.178;11.566;2022-07-04T08:22:34;2.10;;;1.48;;
73670;SDS011;61968;48.178;11.566;2022-07-04T08:25:00;2.08;;;1.48;;
73670;SDS011;61968;48.178;11.566;2022-07-04T08:27:28;1.83;;;1.35;;
73670;SDS011;61968;48.178;11.566;2022-07-04T08:29:54;1.50;;;1.40;;
73670;SDS011;61968;48.178;11.566;2022-07-04T08:32:21;2.25;;;1.17;;
73670;SDS011;61968;48.178;11.566;2022-07-04T08:34:47;2.67;;;1.48;;
73670;SDS011;61968;48.178;11.566;2022-07-04T08:37:14;4.05;;;1.42;;
73670;SDS011;61968;48.178;11.566;2022-07-04T08:39:40;3.38;;;1.30;;
73670;SDS011;61968;48.178;11.566;2022-07-04T08:42:09;1.25;;;1.15;;
73670;SDS011;61968;48.178;11.566;2022-07-04T08:44:40;3.90;;;1.33;;
73670;SDS011;61968;48.178;11.566;2022-07-04T08:47:11;1.15;;;1.08;;
73670;SDS011;61968;48.178;11.566;2022-07-04T08:49:46;2.08;;;1.48;;
73670;SDS011;61968;48.178;11.566;2022-07-04T08:52:21;1.85;;;1.27;;
73670;SDS011;61968;48.178;11.566;2022-07-04T08:54:55;1.17;;;1.08;;
73670;SDS011;61968;48.178;11.566;2022-07-04T08:57:40;1.25;;;1.15;;
73670;SDS011;61968;48.178;11.566;2022-07-04T09:00:26;0.90;;;0.90;;
73670;SDS011;61968;48.178;11.566;2022-07-04T09:02:53;1.00;;;0.90;;
73670;SDS011;61968;48.178;11.566;2022-07-04T09:05:20;0.98;;;0.90;;
73670;SDS011;61968;48.178;11.566;2022-07-04T09:07:47;1.63;;;1.50;;
73670;SDS011;61968;48.178;11.566;2022-07-04T09:10:14;0.85;;;0.85;;
73670;SDS011;61968;48.178;11.566;2022-07-04T09:12:42;3.10;;;1.10;;
73670;SDS011;61968;48.178;11.566;2022-07-04T09:15:09;4.13;;;1.45;;
73670;SDS011;61968;48.178;11.566;2022-07-04T09:17:37;2.00;;;1.15;;
73670;SDS011;61968;48.178;11.566;2022-07-04T09:20:14;0.90;;;0.90;;
73670;SDS011;61968;48.178;11.566;2022-07-04T09:22:42;1.65;;;1.30;;
73670;SDS011;61968;48.178;11.566;2022-07-04T09:25:10;1.60;;;1.20;;
73670;SDS011;61968;48.178;11.566;2022-07-04T09:27:39;1.27;;;1.17;;
73670;SDS011;61968;48.178;11.566;2022-07-04T09:30:09;1.38;;;0.80;;
73670;SDS011;61968;48.178;11.566;2022-07-04T09:32:39;3.78;;;1.05;;
73670;SDS011;61968;48.178;11.566;2022-07-04T09:35:07;0.85;;;0.80;;
73670;SDS011;61968;48.178;11.566;2022-07-04T09:37:35;2.65;;;1.20;;
73670;SDS011;61968;48.178;11.566;2022-07-04T09:40:04;5.47;;;0.93;;
73670;SDS011;61968;48.178;11.566;2022-07-04T09:42:36;1.38;;;1.00;;
73670;SDS011;61968;48.178;11.566;2022-07-04T09:45:05;0.90;;;0.90;;
73670;SDS011;61968;48.178;11.566;2022-07-04T09:47:33;3.22;;;1.42;;
73670;SDS011;61968;48.178;11.566;2022-07-04T09:50:02;2.22;;;0.98;;
73670;SDS011;61968;48.178;11.566;2022-07-04T09:52:30;2.65;;;0.90;;
73670;SDS011;61968;48.178;11.566;2022-07-04T09:54:58;1.42;;;0.80;;
73670;SDS011;61968;48.178;11.566;2022-07-04T09:57:25;0.82;;;0.82;;
73670;SDS011;61968;48.178;11.566;2022-07-04T09:59:52;0.60;;;0.60;;
73670;SDS011;61968;48.178;11.566;2022-07-04T10:02:18;1.30;;;1.20;;
73670;SDS011;61968;48.178;11.566;2022-07-04T10:04:46;2.08;;;1.13;;
73670;SDS011;61968;48.178;11.566;2022-07-04T10:09:57;2.55;;;1.30;;
73670;SDS011;61968;48.178;11.566;2022-07-04T10:12:27;2.45;;;1.27;;
73670;SDS011;61968;48.178;11.566;2022-07-04T10:14:55;1.35;;;1.25;;
73670;SDS011;61968;48.178;11.566;2022-07-04T10:17:22;1.42;;;1.00;;
73670;SDS011;61968;48.178;11.566;2022-07-04T10:19:48;2.58;;;1.30;;
73670;SDS011;61968;48.178;11.566;2022-07-04T10:22:17;0.98;;;0.98;;
73670;SDS011;61968;48.178;11.566;2022-07-04T10:24:45;2.80;;;1.10;;
73670;SDS011;61968;48.178;11.566;2022-07-04T10:27:11;2.55;;;1.17;;
73670;SDS011;61968;48.178;11.566;2022-07-04T10:29:40;1.40;;;1.30;;
73670;SDS011;61968;48.178;11.566;2022-07-04T10:32:07;2.08;;;1.00;;
73670;SDS011;61968;48.178;11.566;2022-07-04T10:34:38;1.13;;;1.10;;
73670;SDS011;61968;48.178;11.566;2022-07-04T10:37:05;3.38;;;1.10;;
73670;SDS011;61968;48.178;11.566;2022-07-04T10:39:32;1.30;;;1.20;;
73670;SDS011;61968;48.178;11.566;2022-07-04T10:42:00;1.58;;;1.48;;
73670;SDS011;61968;48.178;11.566;2022-07-04T10:44:27;3.15;;;1.30;;
73670;SDS011;61968;48.178;11.566;2022-07-04T10:47:01;1.38;;;1.08;;
73670;SDS011;61968;48.178;11.566;2022-07-04T10:49:28;1.20;;;1.10;;
73670;SDS011;61968;48.178;11.566;2022-07-04T10:51:56;2.30;;;1.30;;
73670;SDS011;61968;48.178;11.566;2022-07-04T10:54:36;2.97;;;1.15;;
73670;SDS011;61968;48.178;11.566;2022-07-04T10:57:10;1.15;;;1.15;;
73670;SDS011;61968;48.178;11.566;2022-07-04T10:59:39;1.25;;;0.90;;
73670;SDS011;61968;48.178;11.566;2022-07-04T11:02:26;1.40;;;1.10;;
73670;SDS011;61968;48.178;11.566;2022-07-04T11:04:56;2.22;;;1.48;;
73670;SDS011;61968;48.178;11.566;2022-07-04T11:10:22;3.47;;;1.17;;
73670;SDS011;61968;48.178;11.566;2022-07-04T11:16:02;1.10;;;1.00;;
73670;SDS011;61968;48.178;11.566;2022-07-04T11:18:29;2.53;;;1.40;;
73670;SDS011;61968;48.178;11.566;2022-07-04T11:21:04;0.98;;;0.98;;
73670;SDS011;61968;48.178;11.566;2022-07-04T11:23:41;1.50;;;0.90;;
73670;SDS011;61968;48.178;11.566;2022-07-04T11:26:15;3.08;;;1.27;;
73670;SDS011;61968;48.178;11.566;2022-07-04T11:28:43;0.93;;;0.93;;
73670;SDS011;61968;48.178;11.566;2022-07-04T11:31:09;1.20;;;1.00;;
73670;SDS011;61968;48.178;11.566;2022-07-04T11:33:36;1.63;;;1.20;;
73670;SDS011;61968;48.178;11.566;2022-07-04T11:36:04;4.80;;;1.90;;
73670;SDS011;61968;48.178;11.566;2022-07-04T11:38:45;1.40;;;1.30;;
73670;SDS011;61968;48.178;11.566;2022-07-04T11:41:18;3.78;;;1.52;;
73670;SDS011;61968;48.178;11.566;2022-07-04T11:44:05;1.40;;;1.30;;
73670;SDS011;61968;48.178;11.566;2022-07-04T11:46:50;3.13;;;1.40;;
73670;SDS011;61968;48.178;11.566;2022-07-04T11:49:16;1.52;;;1.40;;
73670;SDS011;61968;48.178;11.566;2022-07-04T11:51:44;2.75;;;1.27;;
73670;SDS011;61968;48.178;11.566;2022-07-04T11:54:13;3.60;;;1.35;;
73670;SDS011;61968;48.178;11.566;2022-07-04T11:56:40;1.20;;;1.00;;
73670;SDS011;61968;48.178;11.566;2022-07-04T11:59:12;1.30;;;1.20;;
73670;SDS011;61968;48.178;11.566;2022-07-04T12:01:39;0.80;;;0.80;;
73670;SDS011;61968;48.178;11.566;2022-07-04T12:04:11;1.63;;;1.02;;
73670;SDS011;61968;48.178;11.566;2022-07-04T12:06:38;1.38;;;1.25;;
73670;SDS011;61968;48.178;11.566;2022-07-04T12:09:05;2.15;;;1.20;;
73670;SDS011;61968;48.178;11.566;2022-07-04T12:11:51;2.38;;;1.63;;
73670;SDS011;61968;48.178;11.566;2022-07-04T12:14:23;1.75;;;0.93;;
73670;SDS011;61968;48.178;11.566;2022-07-04T12:16:50;3.47;;;1.98;;
73670;SDS011;61968;48.178;11.566;2022-07-04T12:19:35;2.92;;;1.98;;
73670;SDS011;61968;48.178;11.566;2022-07-04T12:22:01;1.55;;;1.45;;
73670;SDS011;61968;48.178;11.566;2022-07-04T12:24:36;1.92;;;1.55;;
73670;SDS011;61968;48.178;11.566;2022-07-04T12:27:06;3.42;;;1.23;;
73670;SDS011;61968;48.178;11.566;2022-07-04T12:29:33;1.98;;;1.52;;
73670;SDS011;61968;48.178;11.566;2022-07-04T12:32:00;1.70;;;1.52;;
73670;SDS011;61968;48.178;11.566;2022-07-04T12:34:26;1.33;;;1.13;;
73670;SDS011;61968;48.178;11.566;2022-07-04T12:36:53;1.58;;;1.20;;
73670;SDS011;61968;48.178;11.566;2022-07-04T12:39:28;1.40;;;1.30;;
73670;SDS011;61968;48.178;11.566;2022-07-04T12:42:05;1.88;;;1.40;;
73670;SDS011;61968;48.178;11.566;2022-07-04T12:44:34;2.92;;;1.75;;
73670;SDS011;61968;48.178;11.566;2022-07-04T12:47:01;4.22;;;1.35;;
73670;SDS011;61968;48.178;11.566;2022-07-04T12:49:29;1.58;;;1.45;;
73670;SDS011;61968;48.178;11.566;2022-07-04T12:52:03;1.50;;;1.30;;
73670;SDS011;61968;48.178;11.566;2022-07-04T12:54:34;2.25;;;1.88;;
73670;SDS011;61968;48.178;11.566;2022-07-04T12:57:04;3.88;;;1.80;;
73670;SDS011;61968;48.178;11.566;2022-07-04T12:59:33;2.80;;;1.60;;
73670;SDS011;61968;48.178;11.566;2022-07-04T13:02:01;2.10;;;1.33;;
73670;SDS011;61968;48.178;11.566;2022-07-04T13:04:28;0.98;;;0.98;;
73670;SDS011;61968;48.178;11.566;2022-07-04T13:06:56;2.25;;;1.58;;
73670;SDS011;61968;48.178;11.566;2022-07-04T13:09:24;2.25;;;1.60;;
73670;SDS011;61968;48.178;11.566;2022-07-04T13:11:50;3.45;;;2.10;;
73670;SDS011;61968;48.178;11.566;2022-07-04T13:14:36;7.38;;;1.60;;
73670;SDS011;61968;48.178;11.566;2022-07-04T13:17:03;16.63;;;2.45;;
73670;SDS011;61968;48.178;11.566;2022-07-04T13:19:29;2.72;;;2.10;;
73670;SDS011;61968;48.178;11.566;2022-07-04T13:21:55;1.58;;;1.45;;
73670;SDS011;61968;48.178;11.566;2022-07-04T13:24:22;1.83;;;1.48;;
73670;SDS011;61968;48.178;11.566;2022-07-04T13:26:48;7.15;;;2.47;;
73670;SDS011;61968;48.178;11.566;2022-07-04T13:29:15;4.15;;;1.63;;
73670;SDS011;61968;48.178;11.566;2022-07-04T13:31:43;1.90;;;1.77;;
73670;SDS011;61968;48.178;11.566;2022-07-04T13:34:09;2.60;;;1.17;;
73670;SDS011;61968;48.178;11.566;2022-07-04T13:36:35;1.27;;;1.17;;
73670;SDS011;61968;48.178;11.566;2022-07-04T13:39:02;1.15;;;1.05;;
73670;SDS011;61968;48.178;11.566;2022-07-04T13:41:30;1.45;;;1.33;;
73670;SDS011;61968;48.178;11.566;2022-07-04T13:43:56;1.38;;;1.27;;
73670;SDS011;61968;48.178;11.566;2022-07-04T13:46:23;2.85;;;1.88;;
73670;SDS011;61968;48.178;11.566;2022-07-04T13:48:51;2.22;;;1.85;;
73670;SDS011;61968;48.178;11.566;2022-07-04T13:51:18;1.90;;;1.80;;
73670;SDS011;61968;48.178;11.566;2022-07-04T13:53:44;1.55;;;1.45;;
73670;SDS011;61968;48.178;11.566;2022-07-04T13:56:11;1.80;;;1.50;;
73670;SDS011;61968;48.178;11.566;2022-07-04T13:58:41;3.38;;;1.60;;
73670;SDS011;61968;48.178;11.566;2022-07-04T14:01:07;1.80;;;1.25;;
73670;SDS011;61968;48.178;11.566;2022-07-04T14:03:34;1.42;;;1.23;;
73670;SDS011;61968;48.178;11.566;2022-07-04T14:06:02;1.52;;;1.42;;
73670;SDS011;61968;48.178;11.566;2022-07-04T14:08:28;2.83;;;1.40;;
73670;SDS011;61968;48.178;11.566;2022-07-04T14:10:55;2.88;;;1.27;;
73670;SDS011;61968;48.178;11.566;2022-07-04T14:13:21;1.40;;;1.30;;
73670;SDS011;61968;48.178;11.566;2022-07-04T14:15:48;3.22;;;1.48;;
73670;SDS011;61968;48.178;11.566;2022-07-04T14:18:14;2.75;;;1.60;;
73670;SDS011;61968;48.178;11.566;2022-07-04T14:20:41;1.77;;;1.20;;
73670;SDS011;61968;48.178;11.566;2022-07-04T14:23:09;2.35;;;1.75;;
73670;SDS011;61968;48.178;11.566;2022-07-04T14:25:36;2.50;;;1.85;;
73670;SDS011;61968;48.178;11.566;2022-07-04T14:28:02;1.92;;;1.67;;
73670;SDS011;61968;48.178;11.566;2022-07-04T14:30:32;2.05;;;1.33;;
73670;SDS011;61968;48.178;11.566;2022-07-04T14:32:59;3.03;;;1.45;;
73670;SDS011;61968;48.178;11.566;2022-07-04T14:35:28;2.80;;;1.85;;
73670;SDS011;61968;48.178;11.566;2022-07-04T14:37:55;3.05;;;1.70;;
73670;SDS011;61968;48.178;11.566;2022-07-04T14:40:23;1.83;;;1.73;;
73670;SDS011;61968;48.178;11.566;2022-07-04T14:42:49;1.83;;;1.30;;
73670;SDS011;61968;48.178;11.566;2022-07-04T14:45:16;1.58;;;1.40;;
73670;SDS011;61968;48.178;11.566;2022-07-04T14:47:43;3.63;;;1.90;;